createdAt,value
2022-12-19T00:01:32.573Z,69.58
2022-12-19T00:04:00.350Z,69.36
2022-12-19T00:06:27.592Z,68.86
2022-12-19T00:08:54.519Z,67.89
2022-12-19T00:11:22.702Z,67.40
2022-12-19T00:13:49.285Z,67.79
2022-12-19T00:16:19.036Z,69.06
2022-12-19T00:18:46.345Z,69.41
2022-12-19T00:21:14.029Z,69.49
2022-12-19T00:23:40.591Z,69.77
2022-12-19T00:26:08.426Z,69.66
2022-12-19T00:28:34.912Z,69.71
2022-12-19T00:31:03.023Z,69.79
2022-12-19T00:33:30.901Z,69.05
2022-12-19T00:35:59.715Z,69.15
2022-12-19T00:38:26.337Z,69.78
2022-12-19T00:40:52.856Z,70.13
2022-12-19T00:43:21.479Z,70.32
2022-12-19T00:45:48.076Z,70.13
2022-12-19T00:48:14.714Z,70.28
2022-12-19T00:50:47.110Z,69.61
2022-12-19T00:53:13.613Z,69.59
2022-12-19T00:55:40.164Z,69.82
2022-12-19T00:58:06.681Z,69.88
2022-12-19T01:00:33.277Z,70.10
2022-12-19T01:02:59.871Z,70.03
2022-12-19T01:05:29.279Z,70.23
2022-12-19T01:07:57.151Z,70.37
2022-12-19T01:10:23.634Z,70.17
2022-12-19T01:12:50.133Z,69.95
2022-12-19T01:15:20.377Z,70.11
2022-12-19T01:17:47.367Z,70.29
2022-12-19T01:20:14.772Z,70.10
2022-12-19T01:22:41.284Z,69.98
2022-12-19T01:25:09.271Z,69.92
2022-12-19T01:27:38.892Z,70.26
2022-12-19T01:30:06.169Z,70.00
2022-12-19T01:32:33.869Z,69.82
2022-12-19T01:35:01.080Z,70.00
2022-12-19T01:37:27.542Z,69.97
2022-12-19T01:39:57.543Z,69.76
2022-12-19T01:42:25.353Z,69.84
2022-12-19T01:45:03.534Z,69.97
2022-12-19T01:47:30.159Z,69.91
2022-12-19T01:49:56.708Z,70.37
2022-12-19T01:52:23.932Z,70.12
2022-12-19T01:54:50.600Z,70.25
2022-12-19T01:57:18.252Z,69.90
2022-12-19T01:59:48.414Z,69.73
2022-12-19T02:02:19.006Z,69.61
2022-12-19T02:04:46.142Z,69.66
2022-12-19T02:07:16.125Z,69.58
2022-12-19T02:09:44.873Z,69.86
2022-12-19T02:12:12.660Z,69.79
2022-12-19T02:14:39.578Z,69.80
2022-12-19T02:17:10.071Z,69.83
2022-12-19T02:19:50.698Z,70.38
2022-12-19T02:22:22.690Z,70.08
2022-12-19T02:25:15.554Z,69.92
2022-12-19T02:27:57.010Z,70.01
2022-12-19T02:30:41.312Z,69.82
2022-12-19T02:33:14.156Z,70.54
2022-12-19T02:35:42.861Z,70.21
2022-12-19T02:38:15.445Z,70.20
2022-12-19T02:40:44.954Z,70.27
2022-12-19T02:43:15.775Z,70.43
2022-12-19T02:45:44.935Z,69.98
2022-12-19T02:48:13.048Z,69.26
2022-12-19T02:50:44.519Z,69.26
2022-12-19T02:53:14.856Z,69.59
2022-12-19T02:55:44.080Z,68.79
2022-12-19T02:58:21.824Z,69.13
2022-12-19T03:00:54.792Z,69.64
2022-12-19T03:03:23.317Z,68.78
2022-12-19T03:06:00.960Z,68.06
2022-12-19T03:08:29.082Z,67.62
2022-12-19T03:10:58.579Z,67.99
2022-12-19T03:13:27.449Z,67.84
2022-12-19T03:15:56.125Z,68.87
2022-12-19T03:18:22.733Z,68.06
2022-12-19T03:20:52.630Z,68.25
2022-12-19T03:23:19.295Z,67.74
2022-12-19T03:25:48.618Z,68.20
2022-12-19T03:28:19.228Z,68.21
2022-12-19T03:30:46.675Z,68.79
2022-12-19T03:33:16.945Z,68.04
2022-12-19T03:35:43.683Z,68.10
2022-12-19T03:38:10.965Z,68.79
2022-12-19T03:40:38.673Z,68.94
2022-12-19T03:43:09.758Z,68.96
2022-12-19T03:45:44.639Z,69.91
2022-12-19T03:48:13.122Z,69.90
2022-12-19T03:50:46.717Z,70.04
2022-12-19T03:53:19.576Z,69.63
2022-12-19T03:55:47.513Z,69.90
2022-12-19T03:58:18.534Z,69.98
2022-12-19T04:00:47.463Z,69.74
2022-12-19T04:03:15.599Z,69.95
2022-12-19T04:05:44.471Z,69.73
2022-12-19T04:08:11.858Z,69.92
2022-12-19T04:10:42.215Z,69.94
2022-12-19T04:13:12.378Z,69.66
2022-12-19T04:15:44.256Z,69.47
2022-12-19T04:18:11.812Z,69.73
2022-12-19T04:20:40.693Z,69.88
2022-12-19T04:23:12.057Z,69.66
2022-12-19T04:25:40.700Z,69.51
2022-12-19T04:28:13.470Z,69.22
2022-12-19T04:30:40.695Z,69.27
2022-12-19T04:33:07.953Z,69.53
2022-12-19T04:35:34.672Z,69.80
2022-12-19T04:38:01.176Z,69.43
2022-12-19T04:40:29.121Z,69.44
2022-12-19T04:42:55.596Z,69.69
2022-12-19T04:45:22.119Z,69.79
2022-12-19T04:47:48.570Z,70.01
2022-12-19T04:50:15.412Z,69.92
2022-12-19T04:52:41.906Z,70.09
2022-12-19T04:55:08.845Z,69.87
2022-12-19T04:57:36.748Z,70.12
2022-12-19T05:00:05.043Z,69.97
2022-12-19T05:02:32.221Z,69.96
2022-12-19T05:04:58.898Z,69.99
2022-12-19T05:07:25.446Z,70.02
2022-12-19T05:09:51.911Z,70.03
2022-12-19T05:12:18.417Z,70.00
2022-12-19T05:14:46.231Z,69.67
2022-12-19T05:17:12.772Z,69.68
2022-12-19T05:19:39.251Z,69.44
2022-12-19T05:22:05.841Z,68.83
2022-12-19T05:24:32.594Z,69.30
2022-12-19T05:26:59.407Z,69.31
2022-12-19T05:29:25.950Z,69.76
2022-12-19T05:31:53.808Z,69.44
2022-12-19T05:34:20.344Z,69.78
2022-12-19T05:36:46.841Z,70.10
2022-12-19T05:39:13.368Z,69.95
2022-12-19T05:41:39.838Z,69.58
2022-12-19T05:44:09.270Z,69.82
2022-12-19T05:46:35.981Z,69.66
2022-12-19T05:49:03.953Z,69.41
2022-12-19T05:51:31.291Z,69.30
2022-12-19T05:53:57.816Z,69.01
2022-12-19T05:56:24.301Z,69.13
2022-12-19T05:58:50.910Z,69.22
2022-12-19T06:01:18.467Z,69.28
2022-12-19T06:03:45.164Z,69.11
2022-12-19T06:06:13.901Z,69.42
2022-12-19T06:08:41.340Z,69.05
2022-12-19T06:11:08.328Z,69.02
2022-12-19T06:13:35.807Z,69.13
2022-12-19T06:16:04.305Z,69.47
2022-12-19T06:18:30.969Z,69.01
2022-12-19T06:20:58.601Z,69.32
2022-12-19T06:23:26.645Z,69.32
2022-12-19T06:25:55.463Z,68.86
2022-12-19T06:28:21.956Z,69.11
2022-12-19T06:30:48.504Z,69.17
2022-12-19T06:33:15.102Z,68.94
2022-12-19T06:35:41.656Z,68.98
2022-12-19T06:38:08.162Z,68.98
2022-12-19T06:40:58.671Z,68.90
2022-12-19T06:46:53.950Z,68.78
2022-12-19T06:49:20.500Z,68.78
2022-12-19T06:51:46.962Z,68.64
2022-12-19T06:54:14.084Z,68.88
2022-12-19T06:56:42.610Z,68.68
2022-12-19T06:59:11.562Z,68.80
2022-12-19T07:01:44.733Z,68.82
2022-12-19T07:04:13.933Z,68.93
2022-12-19T07:06:44.677Z,69.08
2022-12-19T07:09:13.885Z,68.93
2022-12-19T07:11:41.696Z,68.94
2022-12-19T07:14:08.178Z,69.09
2022-12-19T07:16:37.353Z,69.15
2022-12-19T07:19:04.487Z,68.71
2022-12-19T07:21:31.111Z,68.85
2022-12-19T07:23:58.496Z,68.77
2022-12-19T07:26:25.019Z,68.92
2022-12-19T07:28:52.986Z,68.95
2022-12-19T07:31:19.529Z,68.85
2022-12-19T07:33:46.108Z,69.04
2022-12-19T07:36:12.576Z,69.25
2022-12-19T07:38:39.051Z,69.22
2022-12-19T07:41:05.766Z,69.09
2022-12-19T07:43:32.245Z,69.45
2022-12-19T07:46:00.175Z,69.22
2022-12-19T07:48:28.717Z,69.50
2022-12-19T07:50:55.237Z,69.20
2022-12-19T07:53:21.776Z,69.18
2022-12-19T07:55:50.228Z,69.38
2022-12-19T07:58:16.776Z,69.10
2022-12-19T08:00:43.299Z,68.90
2022-12-19T08:03:11.451Z,69.04
2022-12-19T08:05:38.299Z,69.48
2022-12-19T08:08:05.034Z,69.47
2022-12-19T08:10:31.803Z,69.48
2022-12-19T08:12:58.307Z,69.83
2022-12-19T08:15:25.042Z,70.06
2022-12-19T08:17:51.693Z,69.80
2022-12-19T08:20:19.629Z,70.05
2022-12-19T08:22:46.145Z,70.13
2022-12-19T08:25:13.311Z,70.50
2022-12-19T08:27:39.835Z,70.24
2022-12-19T08:30:07.164Z,70.36
2022-12-19T08:32:35.530Z,70.39
2022-12-19T08:35:02.039Z,70.07
2022-12-19T08:37:29.865Z,70.70
2022-12-19T08:39:56.368Z,70.36
2022-12-19T08:42:22.838Z,70.58
2022-12-19T08:44:49.352Z,70.21
2022-12-19T08:47:15.921Z,70.22
2022-12-19T08:49:42.466Z,69.85
2022-12-19T08:52:09.510Z,70.37
2022-12-19T08:54:37.834Z,70.32
2022-12-19T08:57:04.459Z,70.38
2022-12-19T08:59:32.115Z,70.44
2022-12-19T09:01:59.565Z,70.98
2022-12-19T09:05:57.342Z,71.47
2022-12-19T09:07:15.658Z,71.48
2022-12-19T09:09:44.001Z,71.26
2022-12-19T09:12:11.837Z,71.15
2022-12-19T09:14:38.389Z,69.67
2022-12-19T09:17:05.076Z,68.98
2022-12-19T09:19:31.907Z,68.39
2022-12-19T09:21:58.498Z,67.86
2022-12-19T09:24:25.166Z,67.31
2022-12-19T09:26:53.159Z,67.36
2022-12-19T09:29:21.784Z,67.47
2022-12-19T09:31:53.885Z,67.98
2022-12-19T09:34:24.387Z,67.95
2022-12-19T09:36:59.934Z,68.25
2022-12-19T09:39:26.466Z,68.33
2022-12-19T09:42:06.302Z,68.50
2022-12-19T09:44:41.354Z,68.68
2022-12-19T09:47:13.278Z,68.76
2022-12-19T09:49:42.690Z,69.13
2022-12-19T09:52:13.570Z,69.20
2022-12-19T09:54:42.478Z,69.10
2022-12-19T09:57:13.953Z,69.45
2022-12-19T09:59:49.436Z,69.02
2022-12-19T10:02:26.819Z,69.57
2022-12-19T10:05:05.960Z,69.43
2022-12-19T10:08:07.240Z,68.97
2022-12-19T10:12:34.622Z,68.76
2022-12-19T10:13:29.609Z,69.15
2022-12-19T10:16:01.106Z,69.17
2022-12-19T10:18:34.810Z,69.04
2022-12-19T10:21:04.459Z,68.88
2022-12-19T10:23:56.612Z,68.87
2022-12-19T10:26:29.993Z,68.42
2022-12-19T10:29:10.855Z,68.24
2022-12-19T10:31:40.608Z,68.49
2022-12-19T10:34:16.806Z,68.11
2022-12-19T10:39:33.726Z,67.67
2022-12-19T10:42:07.854Z,67.75
2022-12-19T10:44:38.450Z,67.35
2022-12-19T10:47:05.029Z,67.72
2022-12-19T10:49:31.709Z,67.67
2022-12-19T10:51:59.192Z,67.45
2022-12-19T10:54:33.344Z,67.65
2022-12-19T10:57:18.125Z,66.90
2022-12-19T10:59:53.765Z,67.34
2022-12-19T11:02:29.334Z,67.33
2022-12-19T11:04:56.188Z,66.83
2022-12-19T11:07:22.794Z,66.29
2022-12-19T11:10:09.174Z,66.04
2022-12-19T11:16:45.531Z,65.01
2022-12-19T11:19:14.035Z,64.21
2022-12-19T11:27:03.923Z,64.42
2022-12-19T11:29:41.736Z,63.96
2022-12-19T11:29:42.002Z,64.06
2022-12-19T11:30:48.174Z,63.69
2022-12-19T11:32:48.833Z,64.15
2022-12-19T11:35:17.937Z,65.05
2022-12-19T11:37:47.940Z,64.68
2022-12-19T11:40:17.260Z,64.75
2022-12-19T11:43:04.388Z,64.92
2022-12-19T11:45:40.902Z,64.99
2022-12-19T11:48:11.897Z,65.21
2022-12-19T11:50:45.044Z,64.88
2022-12-19T11:53:19.108Z,64.74
2022-12-19T11:55:51.110Z,64.49
2022-12-19T11:58:17.616Z,64.42
2022-12-19T12:00:49.771Z,65.58
2022-12-19T12:03:25.903Z,65.88
2022-12-19T12:05:54.514Z,65.67
2022-12-19T12:11:08.754Z,66.24
2022-12-19T12:20:29.539Z,65.78
2022-12-19T12:26:49.070Z,65.57
2022-12-19T12:31:09.270Z,65.76
2022-12-19T12:31:23.775Z,65.51
2022-12-19T12:31:31.784Z,65.23
2022-12-19T12:31:45.835Z,65.54
2022-12-19T12:32:04.667Z,65.46
2022-12-19T12:35:56.814Z,65.97
2022-12-19T12:38:18.760Z,65.23
2022-12-19T12:40:40.454Z,64.98
2022-12-19T12:43:15.681Z,65.19
2022-12-19T12:45:44.934Z,65.39
2022-12-19T12:48:18.243Z,65.49
2022-12-19T12:50:53.143Z,65.23
2022-12-19T12:53:24.182Z,65.44
2022-12-19T12:55:51.904Z,64.86
2022-12-19T12:58:37.225Z,65.32
2022-12-19T13:01:08.557Z,65.52
2022-12-19T13:03:35.386Z,65.62
2022-12-19T13:06:05.504Z,65.85
2022-12-19T13:08:35.202Z,65.95
2022-12-19T13:11:02.702Z,66.58
2022-12-19T13:13:46.887Z,65.90
2022-12-19T13:16:28.294Z,66.24
2022-12-19T13:19:04.125Z,66.85
2022-12-19T13:21:57.661Z,66.86
2022-12-19T13:24:25.603Z,66.59
2022-12-19T13:26:52.453Z,66.83
2022-12-19T13:29:39.978Z,66.39
2022-12-19T13:32:10.857Z,66.33
2022-12-19T13:34:37.378Z,66.26
2022-12-19T13:39:56.782Z,66.57
2022-12-19T13:40:30.662Z,67.19
2022-12-19T13:43:21.107Z,67.06
2022-12-19T13:45:49.755Z,67.34
2022-12-19T13:48:18.749Z,67.45
2022-12-19T13:50:48.165Z,66.81
2022-12-19T13:53:16.826Z,67.12
2022-12-19T13:55:44.786Z,67.62
2022-12-19T13:58:21.849Z,67.06
2022-12-19T14:00:58.601Z,66.57
2022-12-19T14:03:32.792Z,66.58
2022-12-19T14:06:18.206Z,66.83
2022-12-19T14:08:46.737Z,66.71
2022-12-19T14:11:45.065Z,66.78
2022-12-19T14:14:27.505Z,67.63
2022-12-19T14:16:55.534Z,67.27
2022-12-19T14:19:22.944Z,67.68
2022-12-19T14:22:09.800Z,67.69
2022-12-19T14:24:36.013Z,67.64
2022-12-19T14:28:24.279Z,68.11
2022-12-19T14:30:27.693Z,67.43
2022-12-19T14:33:53.165Z,67.65
2022-12-19T14:36:06.398Z,67.91
2022-12-19T14:39:23.794Z,67.79
2022-12-19T14:41:37.829Z,67.77
2022-12-19T14:54:04.474Z,67.82
2022-12-19T14:54:08.205Z,67.48
2022-12-19T14:54:12.267Z,67.97
2022-12-19T14:54:25.524Z,67.57
2022-12-19T14:56:08.396Z,67.14
2022-12-19T14:58:54.201Z,67.32
2022-12-19T15:01:10.012Z,67.59
2022-12-19T15:03:44.695Z,67.39
2022-12-19T15:07:08.848Z,67.73
2022-12-19T15:11:05.553Z,67.80
2022-12-19T15:14:49.063Z,67.63
2022-12-19T15:15:18.450Z,67.44
2022-12-19T15:17:47.547Z,67.32
2022-12-19T15:20:14.215Z,67.27
2022-12-19T15:22:40.691Z,67.59
2022-12-19T15:25:17.590Z,67.32
2022-12-19T15:27:53.950Z,67.12
2022-12-19T15:30:21.372Z,67.82
2022-12-19T15:32:49.177Z,67.24
2022-12-19T15:35:16.733Z,67.40
2022-12-19T15:37:43.542Z,67.75
2022-12-19T15:40:13.982Z,67.34
2022-12-19T15:42:40.662Z,67.50
2022-12-19T15:45:07.972Z,67.67
2022-12-19T15:47:35.490Z,68.00
2022-12-19T15:50:14.138Z,67.72
2022-12-19T15:52:40.622Z,68.11
2022-12-19T15:55:08.863Z,68.10
2022-12-19T15:57:38.446Z,68.10
2022-12-19T16:00:07.499Z,68.41
2022-12-19T16:03:20.686Z,68.33
2022-12-19T16:05:23.209Z,68.47
2022-12-19T16:07:49.867Z,68.71
2022-12-19T16:10:16.726Z,68.66
2022-12-19T16:12:45.240Z,69.04
2022-12-19T16:15:17.127Z,68.96
2022-12-19T16:17:43.633Z,69.08
2022-12-19T16:20:21.054Z,69.65
2022-12-19T16:22:49.333Z,69.52
2022-12-19T16:25:15.860Z,69.37
2022-12-19T16:27:43.142Z,69.36
2022-12-19T16:30:18.906Z,68.91
2022-12-19T16:32:45.969Z,69.20
2022-12-19T16:35:15.509Z,69.22
2022-12-19T16:37:42.490Z,69.42
2022-12-19T16:40:14.032Z,69.59
2022-12-19T16:42:42.177Z,69.90
2022-12-19T16:45:15.749Z,69.99
2022-12-19T16:47:42.245Z,69.91
2022-12-19T16:50:12.526Z,69.95
2022-12-19T16:52:42.457Z,69.94
2022-12-19T16:55:09.756Z,69.90
2022-12-19T16:57:36.271Z,69.72
2022-12-19T17:00:04.489Z,70.08
2022-12-19T17:02:40.661Z,70.35
2022-12-19T17:05:14.014Z,70.59
2022-12-19T17:07:40.507Z,70.94
2022-12-19T17:10:07.342Z,71.15
2022-12-19T17:12:33.859Z,71.26
2022-12-19T17:15:00.404Z,70.96
2022-12-19T17:17:28.364Z,71.02
2022-12-19T17:19:54.834Z,71.33
2022-12-19T17:22:21.470Z,71.20
2022-12-19T17:24:49.020Z,71.26
2022-12-19T17:27:17.389Z,71.71
2022-12-19T17:29:44.460Z,71.50
2022-12-19T17:32:17.022Z,71.51
2022-12-19T17:34:49.515Z,71.44
2022-12-19T17:37:16.943Z,71.49
2022-12-19T17:39:43.440Z,71.13
2022-12-19T17:42:13.713Z,71.66
2022-12-19T17:44:40.192Z,71.45
2022-12-19T17:47:06.741Z,71.69
2022-12-19T17:49:33.522Z,71.83
2022-12-19T17:52:01.411Z,71.95
2022-12-19T17:54:27.967Z,71.61
2022-12-19T17:56:55.318Z,71.56
2022-12-19T17:59:21.863Z,71.55
2022-12-19T18:01:48.625Z,71.48
2022-12-19T18:04:16.939Z,71.67
2022-12-19T18:06:43.687Z,71.57
2022-12-19T18:09:16.663Z,71.73
2022-12-19T18:11:44.632Z,72.14
2022-12-19T18:14:11.397Z,72.36
2022-12-19T18:16:38.083Z,72.53
2022-12-19T18:19:05.231Z,72.70
2022-12-19T18:21:31.823Z,72.59
2022-12-19T18:23:58.356Z,72.41
2022-12-19T18:26:25.098Z,72.37
2022-12-19T18:28:54.409Z,72.20
2022-12-19T18:31:23.180Z,71.89
2022-12-19T18:33:50.208Z,71.53
2022-12-19T18:36:19.012Z,70.91
2022-12-19T18:38:45.922Z,70.92
2022-12-19T18:41:12.546Z,70.85
2022-12-19T18:43:39.121Z,70.86
2022-12-19T18:46:07.145Z,70.75
2022-12-19T18:48:36.382Z,70.99
2022-12-19T18:51:03.883Z,70.79
2022-12-19T18:53:35.649Z,70.36
2022-12-19T18:56:03.546Z,70.56
2022-12-19T18:58:30.059Z,70.48
2022-12-19T19:00:59.427Z,71.04
2022-12-19T19:03:29.488Z,70.43
2022-12-19T19:05:56.287Z,70.49
2022-12-19T19:08:23.513Z,70.21
2022-12-19T19:11:00.148Z,70.43
2022-12-19T19:13:27.345Z,70.41
2022-12-19T19:15:55.222Z,70.70
2022-12-19T19:18:22.951Z,70.56
2022-12-19T19:20:55.705Z,70.18
2022-12-19T19:23:29.495Z,70.19
2022-12-19T19:25:56.027Z,69.98
2022-12-19T19:28:22.541Z,70.15
2022-12-19T19:30:50.949Z,70.08
2022-12-19T19:33:20.089Z,70.04
2022-12-19T19:35:48.057Z,69.85
2022-12-19T19:38:16.413Z,69.67
2022-12-19T19:40:43.331Z,69.57
2022-12-19T19:43:09.882Z,69.38
2022-12-19T19:45:42.787Z,69.84
2022-12-19T19:48:10.019Z,69.83
2022-12-19T19:50:36.605Z,69.70
2022-12-19T19:53:03.133Z,69.64
2022-12-19T19:55:31.405Z,69.82
2022-12-19T19:57:57.925Z,69.84
2022-12-19T20:00:24.417Z,69.89
2022-12-19T20:02:51.229Z,69.96
2022-12-19T20:05:18.389Z,69.57
2022-12-19T20:07:45.163Z,69.85
2022-12-19T20:10:12.285Z,69.81
2022-12-19T20:12:40.218Z,69.71
2022-12-19T20:15:07.669Z,69.80
2022-12-19T20:17:34.234Z,69.97
2022-12-19T20:20:00.776Z,69.73
2022-12-19T20:22:28.399Z,69.74
2022-12-19T20:24:55.053Z,70.03
2022-12-19T20:27:21.591Z,69.86
2022-12-19T20:29:49.726Z,69.95
2022-12-19T20:32:16.243Z,69.92
2022-12-19T20:34:42.763Z,70.34
2022-12-19T20:37:09.285Z,69.97
2022-12-19T20:39:35.937Z,70.31
2022-12-19T20:42:02.419Z,70.21
2022-12-19T20:44:29.242Z,70.60
2022-12-19T20:46:57.845Z,70.63
2022-12-19T20:49:24.380Z,70.50
2022-12-19T20:51:50.924Z,71.02
2022-12-19T20:54:18.237Z,71.11
2022-12-19T20:56:45.041Z,71.43
2022-12-19T20:59:11.711Z,71.61
2022-12-19T21:01:38.356Z,71.88
2022-12-19T21:04:06.558Z,71.89
2022-12-19T21:06:33.503Z,71.78
2022-12-19T21:09:00.160Z,71.75
2022-12-19T21:11:26.818Z,71.80
2022-12-19T21:13:53.409Z,71.80
2022-12-19T21:16:21.435Z,71.45
2022-12-19T21:18:48.573Z,71.36
2022-12-19T21:21:17.879Z,71.75
2022-12-19T21:23:44.804Z,71.18
2022-12-19T21:26:11.695Z,71.19
2022-12-19T21:28:38.378Z,70.92
2022-12-19T21:31:06.306Z,70.79
2022-12-19T21:33:33.462Z,70.72
2022-12-19T21:36:05.262Z,70.56
2022-12-19T21:38:33.136Z,70.08
2022-12-19T21:41:01.671Z,70.36
2022-12-19T21:43:29.877Z,70.42
2022-12-19T21:46:03.667Z,70.31
2022-12-19T21:48:33.913Z,70.23
2022-12-19T21:51:00.420Z,70.05
2022-12-19T21:53:26.880Z,70.11
2022-12-19T21:56:01.250Z,69.80
2022-12-19T21:58:27.756Z,69.95
2022-12-19T22:01:07.878Z,69.97
2022-12-19T22:03:35.293Z,69.99
2022-12-19T22:06:01.944Z,69.68
2022-12-19T22:08:28.650Z,69.75
2022-12-19T22:10:56.741Z,69.74
2022-12-19T22:13:23.334Z,70.03
2022-12-19T22:15:52.199Z,70.13
2022-12-19T22:18:18.746Z,70.02
2022-12-19T22:20:45.392Z,69.39
2022-12-19T22:23:13.529Z,69.64
2022-12-19T22:25:40.381Z,70.06
2022-12-19T22:28:08.366Z,69.47
2022-12-19T22:30:35.206Z,69.53
2022-12-19T22:33:01.958Z,69.52
2022-12-19T22:35:28.479Z,69.50
2022-12-19T22:37:55.104Z,69.34
2022-12-19T22:40:21.587Z,69.56
2022-12-19T22:42:48.127Z,69.61
2022-12-19T22:45:16.032Z,69.29
2022-12-19T22:47:42.536Z,69.42
2022-12-19T22:50:10.516Z,69.68
2022-12-19T22:52:37.202Z,69.66
2022-12-19T22:55:04.139Z,70.06
2022-12-19T22:57:30.658Z,69.83
2022-12-19T22:59:57.158Z,69.52
2022-12-19T23:02:25.061Z,69.66
2022-12-19T23:04:51.649Z,70.07
2022-12-19T23:07:18.284Z,70.00
2022-12-19T23:09:44.744Z,69.85
2022-12-19T23:12:11.448Z,69.90
2022-12-19T23:14:37.934Z,69.68
2022-12-19T23:17:04.429Z,69.94
2022-12-19T23:19:32.310Z,69.78
2022-12-19T23:21:58.821Z,69.71
2022-12-19T23:24:25.331Z,69.76
2022-12-19T23:26:52.708Z,69.35
2022-12-19T23:29:19.297Z,69.51
2022-12-19T23:31:46.904Z,69.58
2022-12-19T23:34:13.958Z,69.66
2022-12-19T23:39:28.473Z,69.59
2022-12-19T23:41:54.943Z,69.67
2022-12-19T23:44:21.647Z,69.59
2022-12-19T23:46:48.202Z,69.76
2022-12-19T23:49:15.614Z,69.76
2022-12-19T23:51:43.440Z,69.77
2022-12-19T23:54:10.107Z,69.72
2022-12-19T23:56:36.880Z,69.73
2022-12-19T23:59:03.742Z,69.38
